Close

Questo sito utlizza cookie. Può leggere come li usiamo nella nostra Privacy Policy.

Ronchi Tower
Ronchi Tower

From Facebook

METAR & TAF

2019/11/19 03:20 LIPQ 190320Z AUTO 01008KT 9999 RA OVC041/// 11/11 Q1016 RERA
2019/11/18 18:21 TAF LIPQ 181700Z 1818/1918 08006KT 9999 SCT020 BKN050 TEMPO 1818/1910 4000 SHRA
2019/11/19 02:20 LIPZ 190220Z 04011KT 9999 FEW020 BKN060 10/08 Q1015 NOSIG
2019/11/18 18:21 TAF LIPZ 181700Z 1818/1924 04012KT 9999 SCT020 BKN050 TEMPO 1818/1824 4000 SHRA TEMPO 1904/1918 4000 SHRA
2019/11/19 03:20 LIPH 190320Z AUTO 03007KT 360V060 9999 FEW035/// BKN088/// 10/08 Q1015
2019/11/18 18:23 TAF LIPH 181700Z 1818/1918 06010KT 9999 SCT020 BKN050 TEMPO 1818/1918 3000 SHRA
2019/11/19 03:20 LIRF 190320Z 16011KT 9999 SCT035 17/10 Q1012 NOSIG
2019/11/18 18:21 TAF LIRF 181700Z 1818/1924 16018G28KT 9999 SCT030 TEMPO 1818/1906 4000 SHRA TEMPO 1906/1924 4000 TSRA BECMG 1912/1914 16014KT BECMG 1918/1920 VRB06KT
2019/11/19 03:20 LIML 190320Z 32003KT 280V350 2500 -RA BKN025 07/07 Q1014 NOSIG
2019/11/18 18:23 TAF LIML 181700Z 1818/1918 VRB05KT 7000 RA BKN020 BK050
2019/11/19 03:20 EDDM 190320Z VRB02KT CAVOK 01/M00 Q1016 NOSIG
2019/11/18 18:27 TAF EDDM 181700Z 1818/1924 23006KT CAVOK BECMG 1822/1824 VRB02KT BECMG 1905/1907 06005KT BECMG 1914/1915 VRB02KT BECMG 1922/1924 2000 BCFG
2019/11/19 03:20 EGSS 190320Z VRB02KT 5000 BR NSC M02/M03 Q1016
2019/11/18 18:09 TAF EGSS 181653Z 1818/1924 30006KT 9999 FEW022 PROB30 1818/1820 9000 BECMG 1820/1823 7000 BECMG 1823/1902 3000 BR MIFG PROB40 1903/1910 0300 FZFG VV/// BECMG 1910/1912 9999 NSW PROB30 TEMPO 1910/1912 BKN006 PROB40 1912/1924 8000
2019/11/19 03:20 EDDF 190320Z 20007KT 8000 -RADZ FEW003 SCT007 BKN009 05/04 Q1015 NOSIG
2019/11/18 18:28 TAF EDDF 181700Z 1818/1924 20009KT 9999 BKN020 TEMPO 1818/1824 4500 RADZ BKN008 PROB40 TEMPO 1900/1909 3000 -DZ BR BKN005 BECMG 1906/1909 22004KT BECMG 1912/1915 SCT030 BECMG 1915/1918 04006KT

FlightRadar24

Radar Meteo

Traffic data

Agosto 2018

Passeggeri: 63892-12,9% (rank: 23)
Nazionali 34490 -19,8%
Internazionali 29193 -3,0%

Movimenti: 1307+11,7% (rank: 24)
Tot commerciale 556 -7,2%
Aviazione generale 751 +31,5%

Cargo (tons): 20,6+62,5% (rank: 21)

Gennaio - Agosto 2018

Passeggeri: 507438-3,5% (rank: 23)
Nazionali 322655 -4,9%
Internazionali 182927 -0,7%

Movimenti: 10366-4,25 (rank: 22)
Tot commerciale 5328 -11,0%
Aviazione generale 5038 +4,2%

Cargo (tons): 299,2+61,9% (rank: 20)

Photo

Douglas DC-6B
Douglas DC-6B
Distinct views: 15
Douglas DC-6B
Douglas DC-6B
Distinct views: 61
Douglas DC-6B
Douglas DC-6B
Distinct views: 199
Boeing 737-700
Boeing 737-700
Total views: 958